Time;durP1;ratioP1;P1;durP2;ratioP2;P2;SDS_P1;SDS_P2;PMS_P1;PMS_P2;Temp;Humidity;BMP_temperature;BMP_pressure;BME280_temperature;BME280_humidity;BME280_pressure;Samples;Min_cycle;Max_cycle;Signal;HPM_P1;HPM_P2
2023/01/10 00:01:55;;;;;;;6.63;6.30;;;6.20;99.90;;;;;;5043152;28;20215;-65
2023/01/10 00:04:21;;;;;;;6.73;6.33;;;6.20;99.90;;;;;;5034772;28;20221;-65
2023/01/10 00:06:46;;;;;;;7.13;6.53;;;6.20;99.90;;;;;;5034491;28;20623;-65
2023/01/10 00:09:12;;;;;;;6.83;6.13;;;6.10;99.90;;;;;;5040824;28;20194;-65
2023/01/10 00:14:22;;;;;;;6.70;5.53;;;6.10;99.90;;;;;;5046156;28;20187;-64
2023/01/10 00:16:47;;;;;;;6.57;6.07;;;6.10;99.90;;;;;;5039393;28;20175;-65
2023/01/10 00:19:13;;;;;;;6.37;5.00;;;6.10;99.90;;;;;;5053792;28;20261;-64
2023/01/10 00:21:38;;;;;;;5.70;5.40;;;6.10;99.90;;;;;;5050322;28;20336;-65
2023/01/10 00:24:21;;;;;;;6.50;6.13;;;6.20;99.90;;;;;;5034079;28;20172;-65
2023/01/10 00:26:51;;;;;;;8.33;5.93;;;6.30;99.90;;;;;;5037442;28;20170;-64
2023/01/10 00:29:26;;;;;;;5.40;5.10;;;6.30;99.90;;;;;;5035714;28;20183;-65
2023/01/10 00:31:52;;;;;;;5.23;5.00;;;6.30;99.90;;;;;;5048605;28;20277;-65
2023/01/10 00:34:18;;;;;;;9.10;5.90;;;6.30;99.90;;;;;;5034066;28;20257;-65
2023/01/10 00:36:46;;;;;;;5.23;4.73;;;6.40;99.90;;;;;;5019063;28;20658;-65
2023/01/10 00:39:12;;;;;;;5.60;5.20;;;6.40;99.90;;;;;;5053461;28;20510;-65
2023/01/10 00:44:22;;;;;;;5.73;5.53;;;6.40;99.90;;;;;;5033835;28;20187;-64
2023/01/10 00:46:48;;;;;;;6.87;6.37;;;6.40;99.90;;;;;;5035280;28;20168;-63
2023/01/10 00:49:15;;;;;;;6.37;5.80;;;6.50;99.90;;;;;;5053231;28;20179;-63
2023/01/10 00:51:41;;;;;;;6.17;5.73;;;6.50;99.90;;;;;;5052266;28;20187;-64
2023/01/10 00:54:08;;;;;;;6.27;5.97;;;6.50;99.90;;;;;;5033634;28;20183;-62
2023/01/10 00:56:34;;;;;;;6.37;5.97;;;6.50;99.90;;;;;;5033418;28;20174;-63
2023/01/10 00:59:00;;;;;;;5.83;4.93;;;6.50;99.90;;;;;;5034379;28;20179;-64
2023/01/10 01:01:25;;;;;;;6.90;6.40;;;6.50;99.90;;;;;;5032958;28;20245;-64
2023/01/10 01:03:51;;;;;;;6.43;5.83;;;6.50;99.90;;;;;;5051211;28;20175;-64
2023/01/10 01:06:17;;;;;;;5.87;5.47;;;6.50;99.90;;;;;;5055437;28;20179;-64
2023/01/10 01:08:42;;;;;;;5.83;5.33;;;6.50;99.90;;;;;;5037607;28;20180;-64
2023/01/10 01:11:08;;;;;;;6.10;5.70;;;6.50;99.90;;;;;;5033597;28;20187;-63
2023/01/10 01:13:35;;;;;;;5.13;4.80;;;6.50;99.90;;;;;;5047778;28;20633;-64
2023/01/10 01:16:00;;;;;;;6.50;6.00;;;6.60;99.90;;;;;;5053265;28;20163;-64
2023/01/10 01:18:27;;;;;;;6.57;5.90;;;6.60;99.90;;;;;;5039997;28;20309;-64
2023/01/10 01:20:55;;;;;;;5.13;4.90;;;6.60;99.90;;;;;;5032635;28;20267;-64
2023/01/10 01:23:21;;;;;;;8.53;6.00;;;6.50;99.90;;;;;;5043954;28;20564;-64
2023/01/10 01:25:54;;;;;;;6.10;5.80;;;6.50;99.90;;;;;;5035153;28;20206;-64
2023/01/10 01:28:23;;;;;;;6.37;5.87;;;6.50;99.90;;;;;;5043504;28;20167;-64
2023/01/10 01:30:49;;;;;;;5.73;5.53;;;6.50;99.90;;;;;;5052519;28;20654;-64
2023/01/10 01:33:15;;;;;;;11.33;6.70;;;6.40;99.90;;;;;;5042839;28;20554;-64
2023/01/10 01:35:45;;;;;;;7.50;6.90;;;6.40;99.90;;;;;;5032878;28;20180;-64
2023/01/10 01:38:11;;;;;;;6.90;6.40;;;6.30;99.90;;;;;;5039868;28;20654;-64
2023/01/10 01:40:38;;;;;;;7.73;6.20;;;6.40;99.90;;;;;;5074088;23;20228;-65
2023/01/10 01:43:04;;;;;;;6.97;6.47;;;6.30;99.90;;;;;;5043775;28;20207;-62
2023/01/10 01:45:39;;;;;;;8.17;7.43;;;6.30;99.90;;;;;;5032635;28;20641;-63
2023/01/10 01:48:31;;;;;;;6.93;6.60;;;6.30;99.90;;;;;;5038743;28;20174;-63
2023/01/10 01:51:09;;;;;;;7.67;7.37;;;6.30;99.90;;;;;;5052149;28;20694;-63
2023/01/10 01:54:10;;;;;;;8.53;7.83;;;6.40;99.90;;;;;;5036499;28;20179;-63
2023/01/10 01:56:43;;;;;;;8.10;7.47;;;6.40;99.90;;;;;;5010689;28;20190;-63
2023/01/10 01:59:14;;;;;;;8.00;7.37;;;6.40;99.90;;;;;;5051364;28;20190;-62
2023/01/10 02:01:42;;;;;;;8.33;7.53;;;6.40;99.90;;;;;;5052084;28;20199;-62
2023/01/10 02:04:25;;;;;;;7.27;6.87;;;6.40;99.90;;;;;;5032784;28;21051;-64
2023/01/10 02:06:54;;;;;;;6.37;6.07;;;6.40;99.90;;;;;;5032209;28;20250;-63
2023/01/10 02:09:23;;;;;;;9.70;7.37;;;6.40;99.90;;;;;;5012294;28;20218;-61
2023/01/10 02:11:49;;;;;;;7.13;6.53;;;6.40;99.90;;;;;;5012311;28;20310;-63
2023/01/10 02:14:15;;;;;;;8.97;6.10;;;6.30;99.90;;;;;;5043406;28;20193;-64
2023/01/10 02:16:40;;;;;;;6.97;6.57;;;6.30;99.90;;;;;;5032076;28;20171;-63
2023/01/10 02:19:17;;;;;;;13.27;6.00;;;6.20;99.90;;;;;;5031549;28;20195;-64
2023/01/10 02:22:01;;;;;;;8.40;6.07;;;6.10;99.90;;;;;;5031793;28;20207;-63
2023/01/10 02:25:23;;;;;;;7.67;7.27;;;6.10;99.90;;;;;;5050414;28;20540;-62
2023/01/10 02:28:26;;;;;;;6.13;5.83;;;6.00;99.90;;;;;;5009637;28;20259;-63
2023/01/10 02:31:10;;;;;;;6.80;6.40;;;6.00;99.90;;;;;;5009269;28;20243;-63
2023/01/10 02:33:40;;;;;;;6.30;5.93;;;6.10;99.90;;;;;;5041500;28;20236;-63
2023/01/10 02:36:40;;;;;;;6.63;6.23;;;6.10;99.90;;;;;;5051637;28;20244;-62
2023/01/10 02:39:20;;;;;;;6.50;5.90;;;6.10;99.90;;;;;;5037083;28;20212;-63
2023/01/10 02:42:05;;;;;;;6.47;6.17;;;6.10;99.90;;;;;;5031459;28;20686;-62
2023/01/10 02:44:39;;;;;;;14.27;7.10;;;6.10;99.90;;;;;;5048717;28;20206;-62
2023/01/10 02:47:07;;;;;;;7.30;6.67;;;6.10;99.90;;;;;;5037667;28;20179;-63
2023/01/10 02:50:19;;;;;;;6.90;6.30;;;6.10;99.90;;;;;;5031200;28;20214;-63
2023/01/10 02:52:44;;;;;;;7.40;6.70;;;6.10;99.90;;;;;;5031330;28;20556;-63
2023/01/10 02:55:10;;;;;;;6.57;5.97;;;6.20;99.90;;;;;;5031386;28;20177;-63
2023/01/10 02:58:01;;;;;;;7.03;6.50;;;6.10;99.90;;;;;;5032669;28;20191;-63
2023/01/10 03:00:58;;;;;;;6.60;6.30;;;6.10;99.90;;;;;;5031286;28;20266;-63
2023/01/10 03:03:38;;;;;;;5.87;5.57;;;6.00;99.90;;;;;;5048204;28;20801;-63
2023/01/10 03:06:20;;;;;;;5.07;4.87;;;5.90;99.90;;;;;;5048088;28;20183;-63
2023/01/10 03:09:10;;;;;;;6.30;6.00;;;5.80;99.90;;;;;;5031472;28;20179;-63
2023/01/10 03:11:41;;;;;;;5.70;5.40;;;5.70;99.90;;;;;;5032089;28;20211;-63
2023/01/10 03:14:21;;;;;;;6.67;6.00;;;5.60;99.90;;;;;;5031452;28;20199;-63
2023/01/10 03:17:00;;;;;;;6.00;5.80;;;5.50;99.90;;;;;;5039191;28;20643;-62
2023/01/10 03:19:30;;;;;;;11.77;6.00;;;5.50;99.90;;;;;;5050946;28;20173;-62
2023/01/10 03:21:59;;;;;;;5.67;5.13;;;5.50;99.90;;;;;;5042260;28;20207;-62
2023/01/10 03:24:50;;;;;;;5.43;5.07;;;5.50;99.90;;;;;;5031274;28;20159;-62
2023/01/10 03:27:54;;;;;;;6.13;5.10;;;5.50;99.90;;;;;;5041785;28;20171;-62
2023/01/10 03:30:34;;;;;;;6.23;5.83;;;5.50;99.90;;;;;;5050919;28;20166;-63
2023/01/10 03:33:01;;;;;;;6.07;5.77;;;5.50;99.90;;;;;;5034684;28;20186;-63
2023/01/10 03:35:53;;;;;;;5.80;5.50;;;5.40;99.90;;;;;;5031058;28;20187;-63
2023/01/10 03:38:54;;;;;;;5.83;5.53;;;5.40;99.90;;;;;;5031201;28;20187;-62
2023/01/10 03:41:39;;;;;;;6.47;5.87;;;5.30;99.90;;;;;;5044669;28;20218;-63
2023/01/10 03:47:09;;;;;;;6.73;6.33;;;5.20;99.90;;;;;;5011322;28;20234;-62
2023/01/10 03:49:38;;;;;;;6.23;5.83;;;5.20;99.90;;;;;;5015277;28;20164;-63
2023/01/10 03:52:06;;;;;;;8.70;6.37;;;5.20;99.90;;;;;;5050768;28;20191;-62
2023/01/10 03:54:31;;;;;;;6.33;5.73;;;5.20;99.90;;;;;;5050163;28;20177;-63
2023/01/10 03:56:57;;;;;;;8.40;5.93;;;5.30;99.90;;;;;;5050791;28;20254;-62
2023/01/10 03:59:26;;;;;;;7.10;5.60;;;5.30;99.90;;;;;;5050567;28;20170;-63
2023/01/10 04:01:52;;;;;;;10.87;6.67;;;5.40;99.90;;;;;;5032439;28;20637;-63
2023/01/10 04:04:18;;;;;;;9.70;5.30;;;5.40;99.90;;;;;;5034464;28;20163;-62
2023/01/10 04:06:43;;;;;;;5.03;4.83;;;5.40;99.90;;;;;;5052338;28;20181;-62
2023/01/10 04:09:09;;;;;;;6.60;5.60;;;5.40;99.90;;;;;;5038018;28;20175;-62
2023/01/10 04:11:35;;;;;;;13.37;5.90;;;5.40;99.90;;;;;;5034381;28;20684;-62
2023/01/10 04:14:01;;;;;;;5.67;5.17;;;5.50;99.90;;;;;;5048152;28;20201;-63
2023/01/10 04:16:26;;;;;;;9.93;5.90;;;5.50;99.90;;;;;;5045006;28;20183;-63
2023/01/10 04:18:52;;;;;;;13.30;5.77;;;5.60;99.90;;;;;;5034108;28;20537;-63
2023/01/10 04:21:17;;;;;;;13.50;5.73;;;5.70;99.90;;;;;;5040831;28;20241;-63
2023/01/10 04:23:43;;;;;;;7.73;6.60;;;5.80;99.90;;;;;;5054199;28;20174;-63
2023/01/10 04:26:09;;;;;;;7.73;6.93;;;5.90;99.90;;;;;;5048335;28;20171;-63
2023/01/10 04:28:34;;;;;;;8.30;7.10;;;6.00;99.90;;;;;;5034025;28;20242;-63
2023/01/10 04:31:00;;;;;;;6.03;5.63;;;6.00;99.90;;;;;;5037099;28;20218;-63
2023/01/10 04:33:27;;;;;;;8.07;6.37;;;6.10;99.90;;;;;;5053702;28;20205;-63
2023/01/10 04:35:53;;;;;;;6.67;5.80;;;6.10;99.90;;;;;;5052143;28;20175;-64
2023/01/10 04:38:18;;;;;;;6.07;5.57;;;6.10;99.90;;;;;;5053842;28;20214;-64
2023/01/10 04:40:50;;;;;;;6.33;5.63;;;6.20;99.90;;;;;;5049718;28;20167;-63
2023/01/10 04:43:16;;;;;;;17.00;8.83;;;6.20;99.90;;;;;;5033572;28;20205;-63
2023/01/10 04:45:42;;;;;;;6.50;6.17;;;6.20;99.90;;;;;;5035947;28;20175;-63
2023/01/10 04:48:08;;;;;;;8.37;7.07;;;6.20;99.90;;;;;;5052309;28;20225;-63
2023/01/10 04:50:33;;;;;;;5.20;4.90;;;6.20;99.90;;;;;;5052174;28;20171;-63
2023/01/10 04:52:59;;;;;;;6.50;5.90;;;6.20;99.90;;;;;;5052875;28;20182;-62
2023/01/10 04:55:25;;;;;;;8.63;5.30;;;6.20;99.90;;;;;;5053361;28;20167;-61
2023/01/10 04:57:50;;;;;;;6.17;5.87;;;6.20;99.90;;;;;;5034280;28;20562;-62
2023/01/10 05:00:16;;;;;;;7.87;7.20;;;6.20;99.90;;;;;;5033105;28;20195;-63
2023/01/10 05:02:43;;;;;;;7.10;6.53;;;6.10;99.90;;;;;;5048758;28;20585;-63
2023/01/10 05:05:13;;;;;;;7.23;5.90;;;6.10;99.90;;;;;;5053270;28;20174;-63
2023/01/10 05:07:39;;;;;;;7.00;6.50;;;6.10;99.90;;;;;;5035384;28;20225;-63
2023/01/10 05:10:06;;;;;;;17.17;7.00;;;6.10;99.90;;;;;;5032857;28;20164;-63
2023/01/10 05:12:32;;;;;;;8.53;6.00;;;6.10;99.90;;;;;;5047608;28;20230;-63
2023/01/10 05:14:57;;;;;;;6.20;5.80;;;6.10;99.90;;;;;;5053041;28;20175;-63
2023/01/10 05:17:23;;;;;;;7.97;6.43;;;6.10;99.90;;;;;;5039675;28;20211;-63
2023/01/10 05:19:48;;;;;;;7.13;6.30;;;6.00;99.90;;;;;;5032775;28;20183;-63
2023/01/10 05:22:14;;;;;;;7.03;6.40;;;6.00;99.90;;;;;;5044049;28;20313;-64
2023/01/10 05:24:40;;;;;;;17.83;6.27;;;5.90;99.90;;;;;;5053025;28;20171;-64
2023/01/10 05:27:06;;;;;;;8.67;5.50;;;5.80;99.90;;;;;;5042971;28;20176;-63
2023/01/10 05:29:33;;;;;;;8.23;6.30;;;5.70;99.90;;;;;;5032485;28;20537;-64
2023/01/10 05:31:58;;;;;;;5.83;5.37;;;5.60;99.90;;;;;;5048846;28;20245;-63
2023/01/10 05:34:24;;;;;;;9.00;5.27;;;5.50;99.90;;;;;;5050806;28;20170;-64
2023/01/10 05:36:49;;;;;;;7.50;6.67;;;5.40;99.90;;;;;;5034379;28;20186;-63
2023/01/10 05:39:15;;;;;;;6.67;6.13;;;5.30;99.90;;;;;;5030434;28;20176;-64
2023/01/10 05:41:41;;;;;;;6.87;6.47;;;5.30;99.90;;;;;;5044553;28;20214;-63
2023/01/10 05:44:07;;;;;;;7.07;6.67;;;5.20;99.90;;;;;;5050771;28;20186;-63
2023/01/10 05:46:33;;;;;;;7.60;6.97;;;5.10;99.90;;;;;;5038785;28;20179;-63
2023/01/10 05:48:58;;;;;;;5.93;5.67;;;5.10;99.90;;;;;;5031329;28;20660;-63
2023/01/10 05:51:24;;;;;;;7.50;6.60;;;5.10;99.90;;;;;;5042668;28;20195;-63
2023/01/10 05:53:50;;;;;;;7.17;6.67;;;5.10;99.90;;;;;;5052400;28;20171;-64
2023/01/10 05:56:16;;;;;;;15.13;8.67;;;5.10;99.90;;;;;;5042962;28;20175;-63
2023/01/10 05:58:42;;;;;;;6.20;5.70;;;5.00;99.90;;;;;;5039001;28;20228;-63
2023/01/10 06:01:08;;;;;;;11.37;7.87;;;4.90;99.90;;;;;;5052097;28;20601;-64
2023/01/10 06:03:33;;;;;;;8.27;6.53;;;4.90;99.90;;;;;;5049005;28;20294;-62
2023/01/10 06:05:59;;;;;;;5.90;5.50;;;4.80;99.90;;;;;;5052203;28;20612;-63
2023/01/10 06:08:25;;;;;;;7.87;6.83;;;4.80;99.90;;;;;;5048451;28;20271;-63
2023/01/10 06:10:51;;;;;;;6.20;5.80;;;4.80;99.90;;;;;;5031794;28;20618;-63
2023/01/10 06:13:17;;;;;;;6.10;5.60;;;4.70;99.90;;;;;;5031660;28;20171;-63
2023/01/10 06:15:42;;;;;;;13.03;6.63;;;4.70;99.90;;;;;;5043032;28;20182;-63
2023/01/10 06:18:08;;;;;;;7.80;7.20;;;4.80;99.90;;;;;;5030736;28;20738;-63
2023/01/10 06:20:34;;;;;;;6.90;6.27;;;4.80;99.90;;;;;;5031742;28;20175;-63
2023/01/10 06:23:03;;;;;;;8.03;6.00;;;4.90;99.90;;;;;;5031889;28;20278;-63
2023/01/10 06:25:29;;;;;;;6.93;6.07;;;4.90;99.90;;;;;;5049706;28;20171;-62
2023/01/10 06:27:55;;;;;;;18.77;7.10;;;4.90;99.90;;;;;;5050405;28;20267;-63
2023/01/10 06:30:21;;;;;;;9.37;6.57;;;4.90;99.90;;;;;;5049773;28;20255;-62
2023/01/10 06:32:47;;;;;;;9.70;6.50;;;5.00;99.90;;;;;;5051665;28;20194;-63
2023/01/10 06:35:12;;;;;;;9.80;5.90;;;5.10;99.90;;;;;;5036317;28;20262;-63
2023/01/10 06:37:38;;;;;;;7.70;7.00;;;5.10;99.90;;;;;;5031429;28;20179;-63
2023/01/10 06:40:04;;;;;;;5.90;5.43;;;5.20;99.90;;;;;;5048214;28;20531;-63
2023/01/10 06:42:30;;;;;;;7.10;6.50;;;5.30;99.90;;;;;;5034478;28;20218;-63
2023/01/10 06:44:55;;;;;;;7.57;5.57;;;5.30;99.90;;;;;;5031558;28;20172;-63
2023/01/10 06:47:21;;;;;;;8.30;6.30;;;5.30;99.90;;;;;;5045429;28;20175;-63
2023/01/10 06:49:47;;;;;;;7.60;6.10;;;5.30;99.90;;;;;;5051252;28;20638;-63
2023/01/10 06:52:12;;;;;;;6.47;6.10;;;5.30;99.90;;;;;;5037840;28;20199;-63
2023/01/10 06:54:38;;;;;;;6.97;6.50;;;5.20;99.90;;;;;;5031583;28;20266;-63
2023/01/10 06:57:04;;;;;;;6.60;5.73;;;5.20;99.90;;;;;;5031790;28;20278;-63
2023/01/10 06:59:30;;;;;;;10.23;6.63;;;5.10;99.90;;;;;;5031163;28;20600;-63
2023/01/10 07:01:55;;;;;;;6.73;5.30;;;5.10;99.90;;;;;;5031602;28;20286;-63
2023/01/10 07:04:21;;;;;;;6.43;5.93;;;5.00;99.90;;;;;;5022233;28;20188;-63
2023/01/10 07:06:46;;;;;;;17.87;6.23;;;4.90;99.90;;;;;;5031580;28;20180;-63
2023/01/10 07:09:12;;;;;;;6.53;5.97;;;4.90;99.90;;;;;;5031317;28;20182;-63
2023/01/10 07:11:38;;;;;;;6.43;5.53;;;4.80;99.90;;;;;;5037041;28;20568;-63
2023/01/10 07:14:04;;;;;;;6.23;5.63;;;4.80;99.90;;;;;;5051364;28;20174;-63
2023/01/10 07:16:29;;;;;;;12.70;5.97;;;4.70;99.90;;;;;;5046379;28;20270;-63
2023/01/10 07:18:55;;;;;;;6.80;5.67;;;4.70;99.90;;;;;;5031188;28;20178;-63
2023/01/10 07:21:20;;;;;;;8.47;5.73;;;4.70;99.90;;;;;;5031742;28;20212;-63
2023/01/10 07:23:49;;;;;;;7.13;6.60;;;4.70;99.90;;;;;;5031237;28;20649;-63
2023/01/10 07:26:17;;;;;;;8.33;7.03;;;4.60;99.90;;;;;;5031688;28;20494;-63
2023/01/10 07:28:44;;;;;;;9.27;6.70;;;4.60;99.90;;;;;;5049885;28;20690;-63
2023/01/10 07:31:10;;;;;;;11.97;7.10;;;4.60;99.90;;;;;;5050184;28;20206;-63
2023/01/10 07:33:36;;;;;;;7.37;6.80;;;4.60;99.90;;;;;;5048656;28;20178;-63
2023/01/10 07:36:02;;;;;;;8.03;7.30;;;4.60;99.90;;;;;;5049714;28;20545;-63
2023/01/10 07:38:28;;;;;;;7.20;6.50;;;4.50;99.90;;;;;;5035090;28;20277;-63
2023/01/10 07:40:54;;;;;;;6.70;6.40;;;4.50;99.90;;;;;;5034770;28;20214;-63
2023/01/10 07:43:19;;;;;;;6.93;6.30;;;4.50;99.90;;;;;;5035728;28;20687;-62
2023/01/10 07:45:45;;;;;;;5.90;5.43;;;4.50;99.90;;;;;;5034791;28;20189;-63
2023/01/10 07:48:11;;;;;;;6.63;6.13;;;4.50;99.90;;;;;;5048983;28;20668;-63
2023/01/10 07:50:37;;;;;;;6.17;5.77;;;4.50;99.90;;;;;;5044452;28;20262;-63
2023/01/10 07:53:05;;;;;;;9.03;7.07;;;4.50;99.90;;;;;;5034505;28;20180;-63
2023/01/10 07:55:33;;;;;;;15.30;7.50;;;4.50;99.90;;;;;;5042524;28;20183;-63
2023/01/10 07:57:59;;;;;;;19.23;6.60;;;4.50;99.90;;;;;;5034640;28;20188;-63
2023/01/10 08:00:24;;;;;;;5.50;5.30;;;4.50;99.90;;;;;;5034128;28;20538;-63
2023/01/10 08:02:54;;;;;;;9.87;6.37;;;4.60;99.90;;;;;;5038664;28;20252;-63
2023/01/10 08:05:20;;;;;;;17.07;7.73;;;5.40;99.90;;;;;;5038084;28;20198;-62
2023/01/10 08:07:46;;;;;;;10.23;6.43;;;4.70;99.90;;;;;;5038598;28;20179;-63
2023/01/10 08:10:12;;;;;;;9.93;7.37;;;4.70;99.90;;;;;;5038070;28;20189;-62
2023/01/10 08:12:37;;;;;;;10.20;5.93;;;4.70;99.90;;;;;;5016356;28;20196;-63
2023/01/10 08:15:03;;;;;;;6.03;5.50;;;4.80;99.90;;;;;;5037463;28;20222;-63
2023/01/10 08:17:32;;;;;;;7.17;6.47;;;4.80;99.90;;;;;;5034106;28;20167;-63
2023/01/10 08:19:58;;;;;;;6.77;5.63;;;4.90;99.90;;;;;;5053538;28;20183;-63
2023/01/10 08:22:23;;;;;;;7.83;6.57;;;4.90;99.90;;;;;;5049877;28;20215;-63
2023/01/10 08:24:49;;;;;;;10.17;7.93;;;5.70;99.90;;;;;;5052607;28;20186;-63
2023/01/10 08:27:15;;;;;;;13.87;6.03;;;5.00;99.90;;;;;;5050858;28;20250;-63
2023/01/10 08:29:41;;;;;;;11.57;7.33;;;5.10;99.90;;;;;;5033476;28;20493;-63
2023/01/10 08:32:07;;;;;;;5.83;5.50;;;5.20;99.90;;;;;;5033574;28;20687;-63
2023/01/10 08:34:32;;;;;;;10.53;6.07;;;5.20;99.90;;;;;;5053810;28;20179;-63
2023/01/10 08:36:58;;;;;;;7.40;6.00;;;5.30;99.90;;;;;;5053507;28;20544;-64
2023/01/10 08:39:25;;;;;;;9.10;6.20;;;5.30;99.90;;;;;;5051731;28;20181;-63
2023/01/10 08:41:51;;;;;;;7.70;5.77;;;5.50;99.90;;;;;;5053211;28;20232;-63
2023/01/10 08:44:17;;;;;;;6.37;5.87;;;5.50;99.90;;;;;;5036664;28;20187;-64
2023/01/10 08:46:43;;;;;;;10.40;6.63;;;5.60;99.90;;;;;;5032191;28;20187;-63
2023/01/10 08:49:08;;;;;;;7.93;6.33;;;5.70;99.90;;;;;;5033847;28;20185;-63
2023/01/10 08:51:34;;;;;;;7.47;6.20;;;5.80;99.90;;;;;;5033334;28;20195;-63
2023/01/10 08:54:00;;;;;;;8.90;7.97;;;5.80;99.90;;;;;;5046118;28;20261;-64
2023/01/10 08:56:26;;;;;;;12.07;11.00;;;5.90;99.90;;;;;;5053595;28;20565;-63
2023/01/10 08:58:51;;;;;;;14.70;6.23;;;6.00;99.90;;;;;;5041821;28;20207;-64
2023/01/10 09:01:17;;;;;;;14.77;6.07;;;6.10;99.90;;;;;;5033151;28;20188;-63
2023/01/10 09:03:43;;;;;;;7.03;6.53;;;6.30;99.90;;;;;;5042259;28;20671;-63
2023/01/10 09:06:09;;;;;;;10.03;6.73;;;6.60;99.90;;;;;;5053207;28;20216;-63
2023/01/10 09:08:35;;;;;;;7.60;6.80;;;6.90;99.90;;;;;;5045612;28;20609;-63
2023/01/10 09:11:01;;;;;;;9.03;6.97;;;7.20;99.90;;;;;;5032584;28;20195;-64
2023/01/10 09:13:28;;;;;;;9.97;6.23;;;7.50;99.90;;;;;;5033252;28;20608;-64
2023/01/10 09:15:54;;;;;;;12.17;6.03;;;7.80;99.90;;;;;;5034528;28;20679;-63
2023/01/10 09:18:20;;;;;;;13.87;6.47;;;8.00;99.90;;;;;;5053109;28;20547;-63
2023/01/10 09:20:46;;;;;;;8.73;5.83;;;8.10;99.90;;;;;;5052278;28;20175;-63
2023/01/10 09:23:17;;;;;;;12.73;5.07;;;8.30;99.90;;;;;;5032687;28;20214;-63
2023/01/10 09:25:43;;;;;;;14.13;5.87;;;8.40;99.90;;;;;;5032746;28;20226;-64
2023/01/10 09:28:09;;;;;;;10.83;4.90;;;8.50;99.90;;;;;;5051503;28;20264;-63
2023/01/10 09:30:36;;;;;;;8.60;5.57;;;8.60;99.90;;;;;;5052437;28;20258;-64
2023/01/10 09:33:02;;;;;;;12.33;6.27;;;8.90;99.90;;;;;;5035029;28;20183;-63
2023/01/10 09:35:29;;;;;;;5.77;4.53;;;9.00;99.90;;;;;;5032549;28;20176;-62
2023/01/10 09:38:00;;;;;;;7.90;4.83;;;9.10;99.90;;;;;;5045806;28;20300;-63
2023/01/10 09:40:50;;;;;;;8.97;4.60;;;9.20;99.90;;;;;;5052298;28;20240;-64
2023/01/10 09:43:42;;;;;;;14.33;5.80;;;9.30;99.90;;;;;;5034240;28;20696;-64
2023/01/10 09:46:25;;;;;;;5.13;4.60;;;9.30;99.90;;;;;;5032424;28;20180;-64
2023/01/10 09:49:23;;;;;;;9.50;6.00;;;9.40;99.90;;;;;;5036170;28;20175;-63
2023/01/10 09:51:51;;;;;;;6.90;5.10;;;9.30;99.90;;;;;;5012521;28;20206;-63
2023/01/10 09:54:31;;;;;;;6.73;5.73;;;9.10;99.90;;;;;;5021431;28;20262;-64
2023/01/10 09:56:59;;;;;;;12.17;5.80;;;9.00;99.90;;;;;;5032129;28;20186;-63
2023/01/10 09:59:38;;;;;;;11.67;5.73;;;8.90;99.90;;;;;;5031163;28;20171;-63
2023/01/10 10:02:19;;;;;;;6.07;5.37;;;9.00;99.90;;;;;;5029609;28;20202;-63
2023/01/10 10:05:08;;;;;;;6.37;5.57;;;8.90;99.90;;;;;;5032148;28;20178;-63
2023/01/10 10:07:34;;;;;;;10.87;6.37;;;9.00;99.90;;;;;;5032134;28;20617;-64
2023/01/10 10:10:00;;;;;;;9.47;5.70;;;9.20;99.90;;;;;;5031446;28;20217;-63
2023/01/10 10:12:54;;;;;;;6.80;5.47;;;9.50;99.90;;;;;;5031985;28;20233;-64
2023/01/10 10:15:45;;;;;;;10.33;5.47;;;9.60;99.90;;;;;;5031971;28;20211;-63
2023/01/10 10:18:20;;;;;;;10.03;5.33;;;9.80;99.90;;;;;;5031918;28;20233;-63
2023/01/10 10:21:06;;;;;;;5.97;4.73;;;9.90;99.90;;;;;;5031591;28;20267;-63
2023/01/10 10:23:43;;;;;;;13.57;4.57;;;10.00;99.90;;;;;;5031930;28;20199;-63
2023/01/10 10:26:20;;;;;;;9.07;4.47;;;10.10;99.90;;;;;;5031876;28;20206;-64
2023/01/10 10:28:55;;;;;;;11.93;5.00;;;10.30;99.90;;;;;;5032459;28;20248;-63
2023/01/10 10:31:50;;;;;;;12.47;5.10;;;10.50;99.90;;;;;;5031447;28;20222;-64
2023/01/10 10:34:37;;;;;;;13.90;6.03;;;10.70;99.90;;;;;;5029443;28;20205;-64
2023/01/10 10:37:10;;;;;;;8.80;4.73;;;10.80;99.90;;;;;;5030854;28;20233;-62
2023/01/10 10:39:42;;;;;;;4.90;4.20;;;11.00;99.90;;;;;;5031254;28;20294;-63
2023/01/10 10:42:12;;;;;;;5.07;4.60;;;11.20;99.90;;;;;;5031201;28;20211;-64
2023/01/10 10:44:46;;;;;;;5.30;4.57;;;11.20;99.90;;;;;;5031626;28;20601;-64
2023/01/10 10:47:18;;;;;;;12.37;5.23;;;11.30;99.90;;;;;;5031570;28;20233;-64
2023/01/10 10:50:07;;;;;;;16.03;5.63;;;11.30;99.90;;;;;;5031279;28;20203;-64
2023/01/10 10:52:35;;;;;;;9.97;4.87;;;11.30;99.90;;;;;;5031520;28;20200;-64
2023/01/10 10:55:02;;;;;;;10.13;5.67;;;11.40;99.90;;;;;;5031474;28;20175;-63
2023/01/10 10:57:30;;;;;;;7.10;4.60;;;11.40;99.90;;;;;;5031170;28;20210;-63
2023/01/10 10:59:57;;;;;;;9.43;5.77;;;11.50;99.90;;;;;;5030993;28;20597;-64
2023/01/10 11:02:29;;;;;;;9.77;5.00;;;11.50;99.90;;;;;;5031264;28;20251;-63
2023/01/10 11:05:13;;;;;;;7.87;5.63;;;11.40;99.90;;;;;;5028924;28;20192;-64
2023/01/10 11:07:39;;;;;;;7.57;4.80;;;11.30;99.90;;;;;;5031254;28;20532;-64
2023/01/10 11:10:33;;;;;;;11.77;4.50;;;11.20;99.90;;;;;;5030913;28;20564;-63
2023/01/10 11:13:00;;;;;;;12.23;5.53;;;11.10;99.90;;;;;;5035538;28;20267;-64
2023/01/10 11:15:37;;;;;;;10.20;5.47;;;10.90;99.90;;;;;;5035467;28;20171;-63
2023/01/10 11:18:11;;;;;;;6.90;5.10;;;10.80;99.90;;;;;;5035207;28;20183;-64
2023/01/10 11:20:45;;;;;;;9.73;6.13;;;10.70;99.90;;;;;;5038728;28;20186;-63
2023/01/10 11:23:10;;;;;;;9.17;5.40;;;10.50;99.90;;;;;;5042326;28;20293;-64
2023/01/10 11:25:45;;;;;;;8.20;5.20;;;10.40;99.90;;;;;;5051898;28;20273;-63
2023/01/10 11:28:13;;;;;;;12.30;6.17;;;10.40;99.90;;;;;;5051608;28;20171;-63
2023/01/10 11:30:38;;;;;;;7.70;4.80;;;10.30;99.90;;;;;;5054778;28;20204;-64
2023/01/10 11:33:07;;;;;;;8.67;4.70;;;10.40;99.90;;;;;;5037745;28;20230;-63
2023/01/10 11:35:35;;;;;;;7.60;5.30;;;10.40;99.90;;;;;;5025171;28;20191;-64
2023/01/10 11:38:18;;;;;;;5.17;4.63;;;10.40;99.90;;;;;;5047725;28;20187;-63
2023/01/10 11:41:05;;;;;;;5.37;4.73;;;10.30;99.90;;;;;;5048436;28;20644;-64
2023/01/10 11:43:37;;;;;;;8.50;5.37;;;10.30;99.90;;;;;;5047428;28;20253;-63
2023/01/10 11:46:04;;;;;;;6.90;4.30;;;10.30;99.90;;;;;;5054592;28;20183;-64
2023/01/10 11:49:02;;;;;;;5.23;4.63;;;10.40;99.90;;;;;;5037556;28;20175;-64
2023/01/10 11:51:37;;;;;;;7.37;4.57;;;10.40;99.90;;;;;;5033713;28;20680;-64
2023/01/10 11:54:20;;;;;;;9.77;5.70;;;10.50;99.90;;;;;;5016436;28;20218;-64
2023/01/10 11:57:01;;;;;;;12.00;5.00;;;10.40;99.90;;;;;;5022769;28;20255;-64
2023/01/10 11:59:28;;;;;;;7.23;5.30;;;10.40;99.90;;;;;;5035405;28;20233;-63
2023/01/10 12:01:54;;;;;;;4.90;4.60;;;10.40;99.90;;;;;;5049402;28;20211;-64
2023/01/10 12:04:21;;;;;;;7.00;5.37;;;10.40;99.90;;;;;;5036339;28;20293;-64
2023/01/10 12:06:50;;;;;;;10.60;5.00;;;10.40;99.90;;;;;;5040617;28;20167;-64
2023/01/10 12:09:38;;;;;;;8.73;4.80;;;10.40;99.90;;;;;;5041544;28;20583;-63
2023/01/10 12:12:18;;;;;;;7.93;5.90;;;10.40;99.90;;;;;;5034530;28;20266;-64
2023/01/10 12:14:45;;;;;;;7.80;5.10;;;10.40;99.90;;;;;;5014581;28;20258;-64
2023/01/10 12:17:25;;;;;;;5.57;5.17;;;10.40;99.90;;;;;;5047041;28;20191;-64
2023/01/10 12:19:57;;;;;;;9.57;5.50;;;10.30;99.90;;;;;;5020629;28;20211;-63
2023/01/10 12:22:40;;;;;;;11.00;5.33;;;10.30;99.90;;;;;;5036283;28;20219;-62
2023/01/10 12:25:26;;;;;;;5.47;4.97;;;10.20;99.90;;;;;;5025730;28;20179;-64
2023/01/10 12:27:53;;;;;;;10.83;5.50;;;10.10;99.90;;;;;;5052065;28;20178;-63
2023/01/10 12:30:33;;;;;;;9.60;5.70;;;10.10;99.90;;;;;;5053750;28;20629;-63
2023/01/10 12:33:05;;;;;;;5.60;5.10;;;10.00;99.90;;;;;;5051987;28;20186;-64
2023/01/10 12:35:53;;;;;;;5.10;4.80;;;10.00;99.90;;;;;;5052142;28;20666;-63
2023/01/10 12:44:27;;;;;;;5.37;4.97;;;9.70;99.90;;;;;;5031706;28;20557;-63
2023/01/10 12:47:18;;;;;;;16.27;5.20;;;9.60;99.90;;;;;;5042868;28;20189;-64
2023/01/10 12:50:09;;;;;;;4.50;4.30;;;9.50;99.90;;;;;;5013604;28;20234;-64
2023/01/10 12:52:55;;;;;;;9.97;5.33;;;9.50;99.90;;;;;;5019212;28;20335;-63
2023/01/10 12:55:24;;;;;;;5.23;4.90;;;9.50;99.90;;;;;;5053372;28;20175;-64
2023/01/10 12:57:54;;;;;;;4.90;4.70;;;9.50;99.90;;;;;;5051439;28;20210;-64
2023/01/10 13:00:45;;;;;;;8.67;4.87;;;9.40;99.90;;;;;;5052974;28;20179;-63
2023/01/10 13:03:23;;;;;;;8.13;5.20;;;9.40;99.90;;;;;;5045974;28;20234;-65
2023/01/10 13:05:50;;;;;;;7.20;6.43;;;9.40;99.90;;;;;;5033291;28;20179;-64
2023/01/10 13:08:21;;;;;;;12.03;5.10;;;9.40;99.90;;;;;;5040277;28;20514;-64
2023/01/10 13:10:52;;;;;;;8.43;5.33;;;9.30;99.90;;;;;;5052849;28;20178;-64
2023/01/10 13:13:50;;;;;;;5.10;4.70;;;9.30;99.90;;;;;;5045897;28;20172;-63
2023/01/10 13:16:23;;;;;;;5.23;4.73;;;9.20;99.90;;;;;;5030710;28;20244;-63
2023/01/10 13:19:10;;;;;;;5.93;5.23;;;9.20;99.90;;;;;;5033455;28;20175;-64
2023/01/10 13:21:38;;;;;;;12.87;5.23;;;9.20;99.90;;;;;;5033032;28;20204;-64
2023/01/10 13:24:16;;;;;;;5.20;4.67;;;9.20;99.90;;;;;;5053955;28;20191;-63
2023/01/10 13:26:55;;;;;;;5.43;5.00;;;9.20;99.90;;;;;;5044584;28;20175;-63
2023/01/10 13:29:29;;;;;;;10.17;5.73;;;9.10;99.90;;;;;;5032613;28;20655;-64